Time;durP1;ratioP1;P1;durP2;ratioP2;P2;SDS_P1;SDS_P2;PMS_P1;PMS_P2;Temp;Humidity;BMP_temperature;BMP_pressure;BME280_temperature;BME280_humidity;BME280_pressure;Samples;Min_cycle;Max_cycle;Signal;HPM_P1;HPM_P2
2022/03/24 00:00:14;;;;;;;15.48;8.25;;;;;;;;;;5028277;28;20037;-79
2022/03/24 00:02:39;;;;;;;13.48;8.18;;;;;;;;;;5028072;28;20077;-79
2022/03/24 00:05:05;;;;;;;14.27;8.00;;;;;;;;;;5029129;28;20033;-79
2022/03/24 00:07:30;;;;;;;15.85;8.60;;;;;;;;;;5027704;28;20177;-79
2022/03/24 00:09:55;;;;;;;12.82;8.13;;;;;;;;;;5026783;28;20025;-79
2022/03/24 00:12:22;;;;;;;14.35;8.50;;;;;;;;;;5026887;28;20049;-78
2022/03/24 00:14:47;;;;;;;14.27;7.75;;;;;;;;;;5025540;28;20026;-78
2022/03/24 00:17:13;;;;;;;16.30;8.50;;;;;;;;;;5026063;28;20106;-78
2022/03/24 00:19:38;;;;;;;12.95;8.52;;;;;;;;;;5026063;28;20024;-78
2022/03/24 00:22:04;;;;;;;14.98;8.10;;;;;;;;;;5024739;28;20041;-78
2022/03/24 00:24:29;;;;;;;17.60;9.15;;;;;;;;;;5025964;28;20034;-79
2022/03/24 00:26:55;;;;;;;13.50;8.32;;;;;;;;;;5025775;28;20030;-78
2022/03/24 00:29:20;;;;;;;16.27;8.43;;;;;;;;;;5026331;28;20585;-78
2022/03/24 00:31:46;;;;;;;15.90;7.97;;;;;;;;;;5026527;28;20073;-77
2022/03/24 00:34:12;;;;;;;16.23;8.00;;;;;;;;;;5025101;28;20442;-78
2022/03/24 00:36:38;;;;;;;12.88;7.88;;;;;;;;;;5024811;28;20076;-78
2022/03/24 00:39:04;;;;;;;14.27;8.25;;;;;;;;;;5023831;28;20030;-78
2022/03/24 00:41:29;;;;;;;18.20;8.85;;;;;;;;;;5024665;28;20049;-78
2022/03/24 00:43:56;;;;;;;12.45;8.23;;;;;;;;;;5025238;28;20022;-78
2022/03/24 00:46:22;;;;;;;16.92;8.27;;;;;;;;;;5026040;28;20045;-78
2022/03/24 00:48:49;;;;;;;15.05;8.85;;;;;;;;;;5025960;28;20022;-78
2022/03/24 00:51:15;;;;;;;14.55;8.25;;;;;;;;;;5025114;28;20040;-78
2022/03/24 00:53:41;;;;;;;13.93;8.40;;;;;;;;;;5021449;28;20033;-78
2022/03/24 00:56:06;;;;;;;28.02;10.88;;;;;;;;;;5020267;28;20063;-78
2022/03/24 00:58:32;;;;;;;26.50;11.02;;;;;;;;;;5019521;28;20565;-78
2022/03/24 01:00:57;;;;;;;19.95;9.75;;;;;;;;;;5018748;28;20030;-78
2022/03/24 01:03:23;;;;;;;20.83;10.10;;;;;;;;;;5020445;28;20463;-78
2022/03/24 01:05:48;;;;;;;17.85;9.27;;;;;;;;;;5020154;28;20034;-78
2022/03/24 01:08:16;;;;;;;20.05;8.73;;;;;;;;;;5020075;28;20025;-78
2022/03/24 01:10:42;;;;;;;14.05;8.45;;;;;;;;;;5019185;28;20045;-79
2022/03/24 01:13:08;;;;;;;16.48;8.25;;;;;;;;;;5018600;28;20037;-78
2022/03/24 01:15:35;;;;;;;16.83;8.95;;;;;;;;;;5019799;28;20026;-78
2022/03/24 01:18:01;;;;;;;16.00;8.98;;;;;;;;;;5020915;28;20021;-79
2022/03/24 01:20:28;;;;;;;17.35;9.63;;;;;;;;;;5020103;28;20548;-78
2022/03/24 01:22:54;;;;;;;13.38;8.02;;;;;;;;;;5020847;28;20030;-78
2022/03/24 01:25:19;;;;;;;15.85;8.60;;;;;;;;;;5020418;28;20052;-78
2022/03/24 01:27:44;;;;;;;14.32;8.82;;;;;;;;;;5019893;28;20068;-78
2022/03/24 01:30:10;;;;;;;19.70;9.05;;;;;;;;;;5019026;28;20084;-79
2022/03/24 01:32:36;;;;;;;14.85;8.48;;;;;;;;;;5020385;28;20037;-78
2022/03/24 01:35:07;;;;;;;15.90;8.45;;;;;;;;;;5018871;28;20487;-78
2022/03/24 01:37:34;;;;;;;14.55;8.05;;;;;;;;;;5020532;28;20096;-78
2022/03/24 01:39:59;;;;;;;15.52;8.30;;;;;;;;;;5020980;28;20022;-79
2022/03/24 01:42:26;;;;;;;15.52;8.32;;;;;;;;;;5021608;28;20575;-78
2022/03/24 01:44:54;;;;;;;17.02;8.00;;;;;;;;;;5020144;28;20060;-79
2022/03/24 01:47:19;;;;;;;17.05;8.93;;;;;;;;;;5022070;28;20105;-78
2022/03/24 01:49:49;;;;;;;17.05;8.32;;;;;;;;;;5022372;28;20041;-78
2022/03/24 01:52:16;;;;;;;15.48;8.27;;;;;;;;;;5023743;28;20026;-78
2022/03/24 01:54:44;;;;;;;16.35;7.90;;;;;;;;;;5025195;28;20052;-78
2022/03/24 01:57:11;;;;;;;15.50;9.10;;;;;;;;;;5026040;28;20097;-78
2022/03/24 01:59:37;;;;;;;18.70;9.05;;;;;;;;;;5024798;28;20022;-78
2022/03/24 02:02:07;;;;;;;15.57;9.48;;;;;;;;;;5026473;28;20037;-78
2022/03/24 02:04:35;;;;;;;16.70;8.85;;;;;;;;;;5024480;28;20128;-78
2022/03/24 02:07:00;;;;;;;15.52;8.35;;;;;;;;;;5025533;28;20057;-78
2022/03/24 02:09:26;;;;;;;14.73;8.50;;;;;;;;;;5025314;28;20026;-78
2022/03/24 02:11:52;;;;;;;15.23;8.32;;;;;;;;;;5025190;28;20022;-78
2022/03/24 02:14:17;;;;;;;14.98;8.15;;;;;;;;;;5027994;28;20022;-77
2022/03/24 02:16:47;;;;;;;17.33;9.73;;;;;;;;;;5028149;28;20033;-78
2022/03/24 02:19:15;;;;;;;15.48;8.75;;;;;;;;;;5029553;28;20050;-78
2022/03/24 02:21:42;;;;;;;14.50;8.32;;;;;;;;;;5029270;28;20086;-78
2022/03/24 02:24:08;;;;;;;16.30;9.15;;;;;;;;;;5029871;28;20026;-78
2022/03/24 02:26:35;;;;;;;15.48;8.68;;;;;;;;;;5029829;28;20013;-77
2022/03/24 02:29:02;;;;;;;16.33;8.43;;;;;;;;;;5028346;28;20034;-78
2022/03/24 02:31:29;;;;;;;14.45;8.15;;;;;;;;;;5051705;23;20056;-73
2022/03/24 02:34:37;;;;;;;14.75;8.60;;;;;;;;;;5032802;28;20043;-73
2022/03/24 02:36:43;;;;;;;16.35;8.02;;;;;;;;;;5032517;28;20434;-73
2022/03/24 02:39:09;;;;;;;13.07;7.50;;;;;;;;;;5032421;28;20113;-73
2022/03/24 02:41:51;;;;;;;16.67;8.88;;;;;;;;;;5032515;28;20028;-73
2022/03/24 02:44:22;;;;;;;17.67;8.60;;;;;;;;;;5032494;28;20021;-73
2022/03/24 02:46:48;;;;;;;16.00;8.63;;;;;;;;;;5032539;28;20028;-73
2022/03/24 02:49:16;;;;;;;19.98;8.82;;;;;;;;;;5032193;28;20036;-73
2022/03/24 02:51:41;;;;;;;15.75;8.43;;;;;;;;;;5032498;28;20025;-73
2022/03/24 02:54:08;;;;;;;17.05;8.50;;;;;;;;;;5032469;28;20026;-73
2022/03/24 02:56:34;;;;;;;13.27;8.68;;;;;;;;;;5030866;28;20028;-73
2022/03/24 02:59:00;;;;;;;19.40;8.57;;;;;;;;;;5032137;28;20025;-73
2022/03/24 03:01:25;;;;;;;13.98;8.50;;;;;;;;;;5032166;28;20017;-73
2022/03/24 03:03:54;;;;;;;17.73;9.10;;;;;;;;;;5031658;28;20017;-73
2022/03/24 03:06:20;;;;;;;15.98;8.93;;;;;;;;;;5032019;28;20029;-73
2022/03/24 03:08:49;;;;;;;16.42;7.93;;;;;;;;;;5031968;28;20028;-73
2022/03/24 03:11:22;;;;;;;17.92;8.75;;;;;;;;;;5030996;28;20511;-73
2022/03/24 03:13:49;;;;;;;16.63;8.20;;;;;;;;;;5032123;28;20033;-73
2022/03/24 03:16:14;;;;;;;13.82;7.97;;;;;;;;;;5032221;28;20056;-73
2022/03/24 03:18:41;;;;;;;15.90;8.73;;;;;;;;;;5031977;28;20025;-73
2022/03/24 03:21:09;;;;;;;16.17;8.70;;;;;;;;;;5032420;28;20029;-73
2022/03/24 03:23:38;;;;;;;14.52;8.43;;;;;;;;;;5031818;28;20025;-73
2022/03/24 03:26:07;;;;;;;14.57;7.95;;;;;;;;;;5031678;28;20025;-73
2022/03/24 03:28:33;;;;;;;16.00;8.52;;;;;;;;;;5031720;28;20021;-73
2022/03/24 03:30:59;;;;;;;13.95;8.95;;;;;;;;;;5031450;28;20536;-73
2022/03/24 03:33:24;;;;;;;17.20;9.07;;;;;;;;;;5031815;28;20075;-73
2022/03/24 03:35:50;;;;;;;17.65;9.00;;;;;;;;;;5031542;28;20017;-73
2022/03/24 03:38:16;;;;;;;15.43;9.00;;;;;;;;;;5031671;28;20044;-73
2022/03/24 03:40:41;;;;;;;14.07;8.88;;;;;;;;;;5031306;28;20025;-73
2022/03/24 03:43:10;;;;;;;15.90;9.20;;;;;;;;;;5031461;28;20493;-73
2022/03/24 03:45:36;;;;;;;20.52;8.82;;;;;;;;;;5031278;28;20588;-73
2022/03/24 03:48:02;;;;;;;17.33;9.10;;;;;;;;;;5031222;28;20033;-73
2022/03/24 03:50:27;;;;;;;17.85;8.57;;;;;;;;;;5031270;28;20055;-73
2022/03/24 03:52:52;;;;;;;16.10;8.77;;;;;;;;;;5031075;28;20033;-72
2022/03/24 03:55:19;;;;;;;16.77;9.77;;;;;;;;;;5031212;28;20268;-73
2022/03/24 03:57:44;;;;;;;19.77;9.35;;;;;;;;;;5031177;28;20025;-72
2022/03/24 04:02:54;;;;;;;16.80;8.93;;;;;;;;;;5031364;28;20052;-72
2022/03/24 04:05:25;;;;;;;17.52;9.18;;;;;;;;;;5029535;28;20467;-73
2022/03/24 04:07:51;;;;;;;20.83;10.10;;;;;;;;;;5031069;28;20025;-72
2022/03/24 04:10:17;;;;;;;19.13;9.45;;;;;;;;;;5030900;28;20037;-73
2022/03/24 04:12:43;;;;;;;17.58;9.77;;;;;;;;;;5030996;28;20048;-73
2022/03/24 04:15:09;;;;;;;16.00;8.85;;;;;;;;;;5030166;28;20021;-73
2022/03/24 04:17:35;;;;;;;20.27;9.07;;;;;;;;;;5030701;28;20049;-73
2022/03/24 04:20:00;;;;;;;20.10;9.73;;;;;;;;;;5030522;28;20071;-73
2022/03/24 04:22:25;;;;;;;16.67;9.75;;;;;;;;;;5030675;28;20021;-73
2022/03/24 04:24:51;;;;;;;18.25;9.52;;;;;;;;;;5030668;28;20052;-73
2022/03/24 04:27:17;;;;;;;17.65;9.23;;;;;;;;;;5030650;28;20030;-73
2022/03/24 04:29:42;;;;;;;17.65;10.00;;;;;;;;;;5030489;28;20482;-72
2022/03/24 04:32:08;;;;;;;19.83;9.98;;;;;;;;;;5030240;28;20030;-73
2022/03/24 04:34:33;;;;;;;19.35;10.43;;;;;;;;;;5030449;28;20025;-73
2022/03/24 04:36:59;;;;;;;17.42;9.30;;;;;;;;;;5030440;28;20100;-73
2022/03/24 04:39:24;;;;;;;16.23;8.90;;;;;;;;;;5030183;28;20055;-73
2022/03/24 04:41:49;;;;;;;19.55;10.13;;;;;;;;;;5030149;28;20071;-74
2022/03/24 04:44:15;;;;;;;18.13;9.70;;;;;;;;;;5030359;28;20490;-73
2022/03/24 04:46:40;;;;;;;14.98;8.95;;;;;;;;;;5030139;28;20025;-73
2022/03/24 04:49:05;;;;;;;18.00;9.57;;;;;;;;;;5030007;28;20029;-73
2022/03/24 04:51:31;;;;;;;18.70;10.02;;;;;;;;;;5030047;28;20048;-73
2022/03/24 04:53:56;;;;;;;20.25;10.50;;;;;;;;;;5030130;28;20442;-74
2022/03/24 04:56:21;;;;;;;19.60;9.45;;;;;;;;;;5030389;28;20033;-73
2022/03/24 04:58:48;;;;;;;16.38;9.85;;;;;;;;;;5028816;28;20408;-74
2022/03/24 05:01:13;;;;;;;18.00;9.35;;;;;;;;;;5029932;28;20033;-73
2022/03/24 05:03:42;;;;;;;16.85;9.25;;;;;;;;;;5030043;28;20067;-73
2022/03/24 05:06:08;;;;;;;18.90;9.07;;;;;;;;;;5030008;28;20029;-73
2022/03/24 05:08:33;;;;;;;17.38;8.88;;;;;;;;;;5030019;28;20175;-73
2022/03/24 05:10:58;;;;;;;16.20;9.20;;;;;;;;;;5030062;28;20494;-73
2022/03/24 05:13:24;;;;;;;21.27;9.95;;;;;;;;;;5030023;28;20052;-73
2022/03/24 05:15:49;;;;;;;16.63;9.40;;;;;;;;;;5030058;28;20490;-73
2022/03/24 05:18:14;;;;;;;16.90;9.30;;;;;;;;;;5029533;28;20446;-73
2022/03/24 05:20:40;;;;;;;17.17;8.77;;;;;;;;;;5029933;28;20112;-73
2022/03/24 05:23:05;;;;;;;17.20;9.20;;;;;;;;;;5029703;28;20040;-73
2022/03/24 05:25:30;;;;;;;16.92;9.25;;;;;;;;;;5029916;28;20479;-73
2022/03/24 05:27:56;;;;;;;18.10;9.32;;;;;;;;;;5032993;28;20517;-73
2022/03/24 05:30:21;;;;;;;16.85;9.93;;;;;;;;;;5033858;28;20037;-73
2022/03/24 05:32:46;;;;;;;23.00;9.55;;;;;;;;;;5033472;28;20025;-73
2022/03/24 05:35:13;;;;;;;16.63;8.77;;;;;;;;;;5033879;28;20059;-73
2022/03/24 05:37:38;;;;;;;17.60;9.65;;;;;;;;;;5034057;28;20147;-73
2022/03/24 05:40:04;;;;;;;21.23;9.57;;;;;;;;;;5033614;28;20111;-73
2022/03/24 05:42:29;;;;;;;17.05;9.18;;;;;;;;;;5033543;28;20036;-73
2022/03/24 05:44:55;;;;;;;15.38;9.13;;;;;;;;;;5033681;28;20103;-73
2022/03/24 05:47:20;;;;;;;17.45;9.18;;;;;;;;;;5033298;28;20048;-73
2022/03/24 05:49:45;;;;;;;20.38;10.93;;;;;;;;;;5033244;28;20383;-73
2022/03/24 05:52:11;;;;;;;17.52;9.93;;;;;;;;;;5033280;28;20029;-74
2022/03/24 05:54:37;;;;;;;20.60;9.60;;;;;;;;;;5033618;28;20208;-73
2022/03/24 05:57:03;;;;;;;20.35;10.30;;;;;;;;;;5033578;28;20032;-73
2022/03/24 05:59:28;;;;;;;20.55;9.85;;;;;;;;;;5033384;28;20493;-73
2022/03/24 06:01:54;;;;;;;21.83;10.30;;;;;;;;;;5033213;28;20030;-73
2022/03/24 06:04:21;;;;;;;19.48;10.43;;;;;;;;;;5033485;28;20032;-73
2022/03/24 06:06:50;;;;;;;17.90;10.27;;;;;;;;;;5033165;28;20087;-73
2022/03/24 06:09:16;;;;;;;24.08;11.55;;;;;;;;;;5033301;28;20077;-73
2022/03/24 06:11:42;;;;;;;20.35;10.77;;;;;;;;;;5033249;28;20029;-73
2022/03/24 06:14:12;;;;;;;16.48;10.18;;;;;;;;;;5033136;28;20384;-73
2022/03/24 06:16:38;;;;;;;20.17;10.95;;;;;;;;;;5032998;28;20474;-73
2022/03/24 06:19:04;;;;;;;22.70;10.95;;;;;;;;;;5032610;28;20060;-73
2022/03/24 06:21:29;;;;;;;20.30;11.07;;;;;;;;;;5032956;28;20033;-73
2022/03/24 06:23:55;;;;;;;20.80;11.20;;;;;;;;;;5032998;28;20479;-73
2022/03/24 06:26:21;;;;;;;21.73;11.75;;;;;;;;;;5032850;28;20025;-73
2022/03/24 06:28:47;;;;;;;20.75;10.45;;;;;;;;;;5032876;28;20033;-73
2022/03/24 06:31:12;;;;;;;21.67;10.43;;;;;;;;;;5032591;28;20037;-73
2022/03/24 06:33:38;;;;;;;18.92;10.10;;;;;;;;;;5032751;28;20021;-73
2022/03/24 06:36:04;;;;;;;22.40;10.93;;;;;;;;;;5032669;28;20486;-73
2022/03/24 06:38:30;;;;;;;21.95;10.85;;;;;;;;;;5031750;28;20152;-73
2022/03/24 06:40:55;;;;;;;19.23;10.73;;;;;;;;;;5032485;28;20119;-73
2022/03/24 06:43:24;;;;;;;23.02;10.20;;;;;;;;;;5032496;28;20114;-73
2022/03/24 06:45:51;;;;;;;19.20;9.93;;;;;;;;;;5032418;28;20059;-73
2022/03/24 06:48:17;;;;;;;20.42;10.43;;;;;;;;;;5030950;28;20032;-73
2022/03/24 06:50:42;;;;;;;21.10;10.00;;;;;;;;;;5032332;28;20029;-73
2022/03/24 06:53:08;;;;;;;17.20;9.95;;;;;;;;;;5032466;28;20029;-73
2022/03/24 06:55:34;;;;;;;18.52;10.50;;;;;;;;;;5032438;28;20034;-73
2022/03/24 06:58:00;;;;;;;24.95;10.15;;;;;;;;;;5032058;28;20039;-73
2022/03/24 07:00:25;;;;;;;16.55;10.20;;;;;;;;;;5032387;28;20021;-74
2022/03/24 07:02:51;;;;;;;20.13;10.30;;;;;;;;;;5032317;28;20021;-73
2022/03/24 07:05:16;;;;;;;18.35;9.50;;;;;;;;;;5032279;28;20036;-73
2022/03/24 07:07:43;;;;;;;18.05;10.93;;;;;;;;;;5032057;28;20036;-74
2022/03/24 07:10:09;;;;;;;18.55;11.05;;;;;;;;;;5031863;28;20028;-74
2022/03/24 07:12:35;;;;;;;22.58;12.75;;;;;;;;;;5030562;28;20120;-74
2022/03/24 07:15:03;;;;;;;21.67;12.95;;;;;;;;;;5032322;28;20399;-74
2022/03/24 07:17:28;;;;;;;21.75;13.80;;;;;;;;;;5028317;28;20100;-74
2022/03/24 07:19:53;;;;;;;22.35;13.68;;;;;;;;;;5025939;28;20120;-75
2022/03/24 07:22:19;;;;;;;20.92;13.15;;;;;;;;;;5028107;28;20021;-75
2022/03/24 07:24:44;;;;;;;21.30;13.05;;;;;;;;;;5028712;28;20297;-75
2022/03/24 07:27:10;;;;;;;20.15;13.75;;;;;;;;;;5027486;28;20379;-75
2022/03/24 07:29:36;;;;;;;20.13;12.80;;;;;;;;;;5028255;28;20480;-74
2022/03/24 07:32:01;;;;;;;18.60;13.55;;;;;;;;;;5027655;28;20041;-75
2022/03/24 07:34:26;;;;;;;19.98;13.43;;;;;;;;;;5028031;28;20475;-75
2022/03/24 07:36:52;;;;;;;20.60;12.85;;;;;;;;;;5027954;28;20034;-75
2022/03/24 07:39:17;;;;;;;22.08;13.07;;;;;;;;;;5027534;28;20052;-74
2022/03/24 07:41:43;;;;;;;22.85;12.68;;;;;;;;;;5027741;28;20033;-75
2022/03/24 07:44:08;;;;;;;19.55;12.20;;;;;;;;;;5022674;28;20041;-75
2022/03/24 07:46:34;;;;;;;20.48;12.40;;;;;;;;;;5024200;28;20029;-75
2022/03/24 07:48:59;;;;;;;21.40;13.02;;;;;;;;;;5024176;28;20553;-73
2022/03/24 07:51:25;;;;;;;19.35;12.32;;;;;;;;;;5024619;28;20041;-74
2022/03/24 07:54:02;;;;;;;18.80;11.88;;;;;;;;;;5023276;28;20396;-74
2022/03/24 07:56:30;;;;;;;16.50;10.57;;;;;;;;;;5022932;28;20025;-74
2022/03/24 07:58:56;;;;;;;15.57;11.38;;;;;;;;;;5027099;28;20094;-75
2022/03/24 08:01:30;;;;;;;14.18;10.15;;;;;;;;;;5025137;28;20069;-73
2022/03/24 08:03:58;;;;;;;13.57;10.15;;;;;;;;;;5027061;28;20530;-74
2022/03/24 08:06:24;;;;;;;15.90;10.32;;;;;;;;;;5027287;28;20061;-74
2022/03/24 08:08:49;;;;;;;15.25;10.77;;;;;;;;;;5027133;28;20110;-74
2022/03/24 08:11:14;;;;;;;17.95;11.20;;;;;;;;;;5027002;28;20025;-74
2022/03/24 08:13:40;;;;;;;14.13;10.07;;;;;;;;;;5027590;28;20024;-74
2022/03/24 08:16:06;;;;;;;16.48;10.90;;;;;;;;;;5027188;28;20013;-75
2022/03/24 08:18:32;;;;;;;20.17;11.13;;;;;;;;;;5027362;28;20103;-75
2022/03/24 08:20:57;;;;;;;15.32;10.18;;;;;;;;;;5027148;28;20026;-74
2022/03/24 08:23:23;;;;;;;13.55;10.38;;;;;;;;;;5026891;28;20037;-74
2022/03/24 08:25:48;;;;;;;15.15;10.93;;;;;;;;;;5027640;28;20025;-76
2022/03/24 08:28:14;;;;;;;16.38;11.25;;;;;;;;;;5026819;28;20029;-75
2022/03/24 08:30:41;;;;;;;16.40;11.40;;;;;;;;;;5025599;28;20029;-75
2022/03/24 08:33:06;;;;;;;17.55;11.25;;;;;;;;;;5028023;28;20364;-75
2022/03/24 08:35:32;;;;;;;16.08;11.85;;;;;;;;;;5026875;28;20386;-75
2022/03/24 08:37:59;;;;;;;17.15;11.23;;;;;;;;;;5027156;28;20578;-75
2022/03/24 08:40:25;;;;;;;14.00;11.00;;;;;;;;;;5026054;28;20222;-75
2022/03/24 08:42:50;;;;;;;15.55;11.35;;;;;;;;;;5026829;28;20075;-75
2022/03/24 08:45:16;;;;;;;18.52;12.18;;;;;;;;;;5027911;28;20029;-76
2022/03/24 08:47:41;;;;;;;15.88;11.95;;;;;;;;;;5027462;28;20025;-75
2022/03/24 08:50:08;;;;;;;19.88;12.95;;;;;;;;;;5027059;28;20369;-75
2022/03/24 08:52:35;;;;;;;17.80;13.40;;;;;;;;;;5033761;28;20021;-75
2022/03/24 08:55:01;;;;;;;16.05;12.63;;;;;;;;;;5028186;28;20025;-75
2022/03/24 08:57:26;;;;;;;17.73;11.55;;;;;;;;;;5026840;28;20487;-75
2022/03/24 08:59:56;;;;;;;16.80;11.45;;;;;;;;;;5026352;28;20071;-75
2022/03/24 09:02:21;;;;;;;14.45;10.80;;;;;;;;;;5024851;28;20030;-75
2022/03/24 09:04:48;;;;;;;14.50;10.60;;;;;;;;;;5026011;28;20071;-76
2022/03/24 09:07:13;;;;;;;15.50;11.05;;;;;;;;;;5024319;28;20021;-75
2022/03/24 09:09:40;;;;;;;14.70;10.98;;;;;;;;;;5025278;28;20494;-74
2022/03/24 09:12:06;;;;;;;15.55;10.82;;;;;;;;;;5026523;28;20036;-75
2022/03/24 09:14:32;;;;;;;14.85;10.98;;;;;;;;;;5027941;28;20033;-75
2022/03/24 09:16:57;;;;;;;13.50;10.60;;;;;;;;;;5026445;28;20032;-75
2022/03/24 09:19:22;;;;;;;14.88;11.18;;;;;;;;;;5025634;28;20037;-74
2022/03/24 09:21:48;;;;;;;14.88;11.25;;;;;;;;;;5025434;28;20373;-75
2022/03/24 09:24:13;;;;;;;15.27;10.52;;;;;;;;;;5026200;28;20530;-76
2022/03/24 09:26:39;;;;;;;14.18;11.38;;;;;;;;;;5024428;28;20052;-76
2022/03/24 09:29:05;;;;;;;16.15;10.63;;;;;;;;;;5025931;28;20022;-75
2022/03/24 09:31:30;;;;;;;15.45;10.35;;;;;;;;;;5024420;28;20029;-76
2022/03/24 09:33:56;;;;;;;14.55;10.38;;;;;;;;;;5024805;28;20430;-75
2022/03/24 09:36:22;;;;;;;13.98;9.98;;;;;;;;;;5028440;28;20517;-75
2022/03/24 09:38:47;;;;;;;15.65;10.88;;;;;;;;;;5022066;28;20034;-75
2022/03/24 09:41:16;;;;;;;14.90;11.10;;;;;;;;;;5022700;28;20064;-75
2022/03/24 09:43:42;;;;;;;15.13;11.23;;;;;;;;;;5023110;28;20017;-73
2022/03/24 09:46:08;;;;;;;14.80;11.32;;;;;;;;;;5022717;28;20084;-76
2022/03/24 09:48:34;;;;;;;15.30;11.50;;;;;;;;;;5023114;28;20531;-75
2022/03/24 09:50:59;;;;;;;16.77;10.98;;;;;;;;;;5023111;28;20140;-75
2022/03/24 09:53:24;;;;;;;20.30;12.05;;;;;;;;;;5022275;28;20033;-75
2022/03/24 09:55:50;;;;;;;15.50;11.45;;;;;;;;;;5022077;28;20025;-75
2022/03/24 09:58:16;;;;;;;15.43;11.25;;;;;;;;;;5031069;28;20025;-75
2022/03/24 10:00:41;;;;;;;15.70;11.15;;;;;;;;;;5042949;28;20407;-75
2022/03/24 10:03:15;;;;;;;15.27;11.07;;;;;;;;;;5024662;28;20464;-75
2022/03/24 10:05:53;;;;;;;16.20;10.90;;;;;;;;;;5022582;28;20074;-75
2022/03/24 10:08:18;;;;;;;18.77;12.10;;;;;;;;;;5020834;28;20057;-75
2022/03/24 10:10:43;;;;;;;16.65;11.80;;;;;;;;;;5022047;28;20087;-75
2022/03/24 10:13:09;;;;;;;17.05;12.07;;;;;;;;;;5022920;28;20021;-75
2022/03/24 10:15:37;;;;;;;18.13;12.05;;;;;;;;;;5025545;28;20306;-75
2022/03/24 10:18:03;;;;;;;18.08;11.73;;;;;;;;;;5025391;28;20116;-75
2022/03/24 10:20:29;;;;;;;18.25;12.80;;;;;;;;;;5024335;28;20116;-76
2022/03/24 10:23:06;;;;;;;16.40;12.05;;;;;;;;;;5026339;28;20227;-75
2022/03/24 10:25:34;;;;;;;18.83;12.82;;;;;;;;;;5024182;28;20372;-76
2022/03/24 10:28:08;;;;;;;17.48;12.18;;;;;;;;;;5026491;28;20060;-76
2022/03/24 10:30:58;;;;;;;17.90;12.70;;;;;;;;;;5026142;28;20379;-76
2022/03/24 10:33:47;;;;;;;15.85;12.30;;;;;;;;;;5024866;28;20017;-76
2022/03/24 10:36:18;;;;;;;21.27;14.05;;;;;;;;;;5025559;28;20493;-76
2022/03/24 10:38:49;;;;;;;20.65;13.77;;;;;;;;;;5025964;28;20403;-76
2022/03/24 10:41:27;;;;;;;18.98;13.25;;;;;;;;;;5026076;28;20091;-76
2022/03/24 10:43:55;;;;;;;19.30;13.95;;;;;;;;;;5028418;28;20030;-75
2022/03/24 10:46:29;;;;;;;17.42;13.88;;;;;;;;;;5025033;28;20196;-74
2022/03/24 10:48:55;;;;;;;22.73;16.08;;;;;;;;;;5025198;28;20044;-74
2022/03/24 10:51:24;;;;;;;23.20;16.02;;;;;;;;;;5026011;28;20025;-74
2022/03/24 10:53:51;;;;;;;29.90;15.48;;;;;;;;;;5026292;28;20032;-75
2022/03/24 10:56:27;;;;;;;22.70;15.43;;;;;;;;;;5025198;28;20033;-74
2022/03/24 10:58:59;;;;;;;22.23;15.05;;;;;;;;;;5024960;28;20498;-75
2022/03/24 11:01:27;;;;;;;19.40;14.82;;;;;;;;;;5006731;28;20041;-76
2022/03/24 11:03:53;;;;;;;21.10;15.98;;;;;;;;;;5025065;28;20028;-73
2022/03/24 11:06:22;;;;;;;24.42;16.27;;;;;;;;;;5023528;28;20064;-74
2022/03/24 11:09:02;;;;;;;24.08;15.95;;;;;;;;;;5024742;28;20068;-73
2022/03/24 11:11:29;;;;;;;25.02;15.45;;;;;;;;;;5017120;28;20044;-76
2022/03/24 11:14:00;;;;;;;27.70;17.42;;;;;;;;;;5025262;28;20544;-73
2022/03/24 11:16:27;;;;;;;26.63;18.00;;;;;;;;;;5024076;28;20383;-74
2022/03/24 11:18:54;;;;;;;27.77;18.08;;;;;;;;;;5026037;28;20033;-72
2022/03/24 11:21:44;;;;;;;25.02;18.00;;;;;;;;;;5026264;28;20025;-74
2022/03/24 11:24:09;;;;;;;24.80;16.45;;;;;;;;;;5024719;28;20121;-73
2022/03/24 11:26:35;;;;;;;23.95;17.25;;;;;;;;;;5024522;28;20104;-73
2022/03/24 11:29:02;;;;;;;24.27;17.05;;;;;;;;;;5024037;28;20185;-74
2022/03/24 11:31:28;;;;;;;27.65;17.23;;;;;;;;;;5024850;28;20083;-73
2022/03/24 11:33:56;;;;;;;26.25;18.15;;;;;;;;;;5024655;28;20568;-74
2022/03/24 11:36:22;;;;;;;26.98;17.45;;;;;;;;;;5024703;28;20021;-75
2022/03/24 11:38:51;;;;;;;24.92;17.27;;;;;;;;;;5025631;28;20121;-75
2022/03/24 11:41:33;;;;;;;30.35;16.98;;;;;;;;;;5029161;28;20095;-75
2022/03/24 11:44:03;;;;;;;;;;;;;;;;;;5029278;28;20025;-74
2022/03/24 11:46:41;;;;;;;23.33;15.88;;;;;;;;;;5009070;28;19913;-75
2022/03/24 11:49:19;;;;;;;26.98;17.35;;;;;;;;;;5024640;28;20117;-74
2022/03/24 11:52:04;;;;;;;26.45;16.48;;;;;;;;;;5023835;28;20032;-73
2022/03/24 11:54:40;;;;;;;22.25;15.65;;;;;;;;;;5015211;28;20057;-73
2022/03/24 11:57:25;;;;;;;27.88;15.77;;;;;;;;;;5006359;28;20455;-74
2022/03/24 12:00:13;;;;;;;24.55;15.52;;;;;;;;;;5006064;28;20510;-74
2022/03/24 12:02:51;;;;;;;23.15;14.40;;;;;;;;;;5026441;28;20108;-74
2022/03/24 12:05:17;;;;;;;25.42;17.38;;;;;;;;;;5027600;28;20017;-75
2022/03/24 12:07:43;;;;;;;23.45;15.05;;;;;;;;;;5026958;28;20107;-74
2022/03/24 12:10:11;;;;;;;23.77;16.08;;;;;;;;;;5026902;28;20273;-74
2022/03/24 12:12:37;;;;;;;25.30;16.42;;;;;;;;;;5026041;28;20049;-74
2022/03/24 12:15:31;;;;;;;25.55;16.60;;;;;;;;;;5028199;28;20037;-74
2022/03/24 12:18:07;;;;;;;22.92;15.13;;;;;;;;;;5027837;28;20040;-75
2022/03/24 12:20:43;;;;;;;28.08;16.58;;;;;;;;;;5046078;28;20119;-74
2022/03/24 12:23:09;;;;;;;30.25;16.42;;;;;;;;;;5046895;28;20448;-74
2022/03/24 12:25:35;;;;;;;26.52;16.27;;;;;;;;;;5042725;28;20098;-74
2022/03/24 12:28:05;;;;;;;24.20;14.63;;;;;;;;;;5027820;28;20527;-74
2022/03/24 12:30:42;;;;;;;27.13;15.52;;;;;;;;;;5027242;28;20022;-74
2022/03/24 12:33:11;;;;;;;27.90;16.35;;;;;;;;;;5026903;28;20526;-72
2022/03/24 12:35:45;;;;;;;26.40;14.38;;;;;;;;;;5025911;28;20438;-72
2022/03/24 12:38:33;;;;;;;26.95;16.20;;;;;;;;;;5029154;28;20479;-74
2022/03/24 12:41:08;;;;;;;25.63;16.52;;;;;;;;;;5032391;28;20120;-74
2022/03/24 12:43:49;;;;;;;27.80;15.68;;;;;;;;;;5008052;28;20025;-74
2022/03/24 12:46:21;;;;;;;25.50;15.15;;;;;;;;;;5015142;28;20095;-75
2022/03/24 12:48:47;;;;;;;28.40;16.10;;;;;;;;;;5032041;28;20733;-74
2022/03/24 12:51:24;;;;;;;26.92;15.82;;;;;;;;;;5029872;28;20099;-74
2022/03/24 12:54:03;;;;;;;25.20;15.75;;;;;;;;;;5034220;28;20028;-74
2022/03/24 12:56:31;;;;;;;25.27;15.73;;;;;;;;;;5025027;28;20032;-74
2022/03/24 12:59:06;;;;;;;26.85;15.68;;;;;;;;;;5026136;28;20025;-74
2022/03/24 13:01:33;;;;;;;23.98;14.90;;;;;;;;;;5034170;28;20032;-74
2022/03/24 13:04:05;;;;;;;25.33;15.43;;;;;;;;;;5046611;28;20516;-74
2022/03/24 13:06:33;;;;;;;25.20;14.83;;;;;;;;;;5036043;28;20041;-75
2022/03/24 13:09:18;;;;;;;26.05;15.13;;;;;;;;;;5025420;28;20037;-74
2022/03/24 13:11:57;;;;;;;24.33;15.82;;;;;;;;;;5027946;28;20047;-75
2022/03/24 13:14:24;;;;;;;22.80;14.93;;;;;;;;;;5026686;28;20022;-75
2022/03/24 13:17:13;;;;;;;29.55;16.10;;;;;;;;;;5025864;28;20018;-74
2022/03/24 13:19:41;;;;;;;23.00;15.30;;;;;;;;;;5026139;28;20029;-73
2022/03/24 13:22:28;;;;;;;25.95;15.48;;;;;;;;;;5026019;28;20479;-73
2022/03/24 13:25:07;;;;;;;23.83;15.45;;;;;;;;;;5022535;28;20055;-75
2022/03/24 13:27:35;;;;;;;24.92;15.38;;;;;;;;;;5013328;28;20060;-74
2022/03/24 13:30:09;;;;;;;24.65;15.35;;;;;;;;;;5022121;28;20052;-74
2022/03/24 13:32:35;;;;;;;25.52;15.98;;;;;;;;;;5022113;28;20256;-74
2022/03/24 13:35:05;;;;;;;24.17;15.52;;;;;;;;;;5024618;28;20029;-74
2022/03/24 13:37:40;;;;;;;23.70;13.82;;;;;;;;;;5024805;28;20025;-75
2022/03/24 13:40:09;;;;;;;28.75;16.35;;;;;;;;;;5023071;28;20037;-74
2022/03/24 13:42:35;;;;;;;24.63;15.57;;;;;;;;;;5025973;28;20449;-74
2022/03/24 13:45:01;;;;;;;23.42;14.27;;;;;;;;;;5027142;28;20021;-75
2022/03/24 13:47:27;;;;;;;25.23;15.45;;;;;;;;;;5024491;28;20033;-74
2022/03/24 13:49:58;;;;;;;25.83;15.02;;;;;;;;;;5029283;28;20029;-74
2022/03/24 13:52:40;;;;;;;26.70;15.88;;;;;;;;;;5029427;28;20262;-74
2022/03/24 13:55:11;;;;;;;27.83;15.95;;;;;;;;;;5028883;28;20018;-73
2022/03/24 13:57:46;;;;;;;24.60;15.55;;;;;;;;;;5029740;28;20350;-74
2022/03/24 14:00:23;;;;;;;22.40;15.23;;;;;;;;;;5044316;28;20078;-74
2022/03/24 14:03:04;;;;;;;22.60;14.27;;;;;;;;;;5037248;28;20025;-73
2022/03/24 14:06:15;;;;;;;25.27;14.18;;;;;;;;;;5030208;28;20033;-74
2022/03/24 14:08:50;;;;;;;23.27;14.43;;;;;;;;;;5027240;28;20076;-74
2022/03/24 14:11:18;;;;;;;24.13;14.57;;;;;;;;;;5027631;28;20045;-74
2022/03/24 14:13:44;;;;;;;25.30;14.07;;;;;;;;;;5029269;28;20475;-74
2022/03/24 14:16:23;;;;;;;24.33;14.43;;;;;;;;;;5029315;28;20042;-73
2022/03/24 14:19:08;;;;;;;23.52;15.23;;;;;;;;;;5028983;28;20049;-74
2022/03/24 14:21:56;;;;;;;26.20;16.08;;;;;;;;;;5029330;28;20072;-73
2022/03/24 14:24:33;;;;;;;28.33;17.25;;;;;;;;;;5029220;28;20029;-73
2022/03/24 14:27:05;;;;;;;26.52;16.17;;;;;;;;;;5029342;28;20030;-73
2022/03/24 14:29:32;;;;;;;24.75;14.43;;;;;;;;;;5028621;28;20155;-74
2022/03/24 14:32:11;;;;;;;21.67;13.45;;;;;;;;;;5045046;23;20693;-79